Time;durP1;ratioP1;P1;durP2;ratioP2;P2;SDS_P1;SDS_P2;PMS_P1;PMS_P2;Temp;Humidity;BMP_temperature;BMP_pressure;BME280_temperature;BME280_humidity;BME280_pressure;Samples;Min_cycle;Max_cycle;Signal;HPM_P1;HPM_P2
2021/05/07 00:01:55;;;;;;;11.80;7.93;;;;;;;;;;4357410;33;20140;-72
2021/05/07 00:04:21;;;;;;;12.17;6.90;;;;;;;;;;4361903;32;20559;-73
2021/05/07 00:06:46;;;;;;;11.53;7.27;;;;;;;;;;4350188;32;20155;-73
2021/05/07 00:09:12;;;;;;;12.17;7.37;;;;;;;;;;4348736;33;20163;-72
2021/05/07 00:11:37;;;;;;;15.30;7.57;;;;;;;;;;4346980;33;20151;-73
2021/05/07 00:14:02;;;;;;;11.43;7.10;;;;;;;;;;4337701;33;20175;-73
2021/05/07 00:16:27;;;;;;;11.03;7.90;;;;;;;;;;4361246;33;20165;-72
2021/05/07 00:18:53;;;;;;;11.90;7.63;;;;;;;;;;4361432;32;20615;-74
2021/05/07 00:21:18;;;;;;;14.13;7.97;;;;;;;;;;4348348;33;20480;-72
2021/05/07 00:23:43;;;;;;;16.90;9.00;;;;;;;;;;4362656;32;20139;-72
2021/05/07 00:26:08;;;;;;;11.73;7.87;;;;;;;;;;4355235;32;20289;-72
2021/05/07 00:28:35;;;;;;;10.47;7.20;;;;;;;;;;4345707;33;20472;-71
2021/05/07 00:31:00;;;;;;;12.73;8.20;;;;;;;;;;4333269;33;20684;-72
2021/05/07 00:33:26;;;;;;;13.10;8.57;;;;;;;;;;4346406;33;20139;-72
2021/05/07 00:35:51;;;;;;;12.40;7.53;;;;;;;;;;4332702;33;20621;-72
2021/05/07 00:38:16;;;;;;;13.40;7.90;;;;;;;;;;4345857;33;20201;-72
2021/05/07 00:40:42;;;;;;;9.63;7.00;;;;;;;;;;4333880;33;20589;-74
2021/05/07 00:43:07;;;;;;;11.27;6.80;;;;;;;;;;4347399;33;20140;-74
2021/05/07 00:45:32;;;;;;;15.73;8.87;;;;;;;;;;4347028;33;20539;-73
2021/05/07 00:47:59;;;;;;;14.43;9.10;;;;;;;;;;4332117;33;20210;-71
2021/05/07 00:50:27;;;;;;;13.97;8.80;;;;;;;;;;4347088;33;20143;-73
2021/05/07 00:52:54;;;;;;;14.77;9.37;;;;;;;;;;4333136;33;20214;-73
2021/05/07 00:55:19;;;;;;;14.00;8.60;;;;;;;;;;4346853;33;20198;-72
2021/05/07 00:57:44;;;;;;;12.70;8.57;;;;;;;;;;4345414;33;20213;-72
2021/05/07 01:00:10;;;;;;;12.17;8.27;;;;;;;;;;4331583;33;20287;-72
2021/05/07 01:02:35;;;;;;;12.80;8.23;;;;;;;;;;4346814;33;20198;-72
2021/05/07 01:05:04;;;;;;;13.10;8.00;;;;;;;;;;4346232;33;20131;-72
2021/05/07 01:07:29;;;;;;;13.00;8.80;;;;;;;;;;4346323;33;20163;-72
2021/05/07 01:09:54;;;;;;;13.40;9.03;;;;;;;;;;4347639;33;20174;-72
2021/05/07 01:12:19;;;;;;;14.57;8.60;;;;;;;;;;4331929;33;20190;-72
2021/05/07 01:15:04;;;;;;;14.20;9.37;;;;;;;;;;4345932;33;20178;-72
2021/05/07 01:17:30;;;;;;;14.83;9.50;;;;;;;;;;4333586;33;20167;-72
2021/05/07 01:19:55;;;;;;;16.10;9.30;;;;;;;;;;4346135;33;20217;-72
2021/05/07 01:22:20;;;;;;;14.07;8.33;;;;;;;;;;4345405;33;20142;-73
2021/05/07 01:24:45;;;;;;;12.03;7.67;;;;;;;;;;4345647;33;20161;-72
2021/05/07 01:27:10;;;;;;;14.07;9.30;;;;;;;;;;4347192;33;20199;-72
2021/05/07 01:29:36;;;;;;;20.07;11.43;;;;;;;;;;4332412;33;20226;-72
2021/05/07 01:32:01;;;;;;;18.37;10.83;;;;;;;;;;4350600;33;20139;-72
2021/05/07 01:34:26;;;;;;;17.17;10.57;;;;;;;;;;4360859;33;20528;-72
2021/05/07 01:36:52;;;;;;;15.77;10.33;;;;;;;;;;4359787;33;20613;-72
2021/05/07 01:39:17;;;;;;;15.67;10.87;;;;;;;;;;4347780;33;20175;-72
2021/05/07 01:41:42;;;;;;;15.93;9.97;;;;;;;;;;4360202;33;20131;-71
2021/05/07 01:44:07;;;;;;;15.67;10.80;;;;;;;;;;4360071;33;20501;-72
2021/05/07 01:46:33;;;;;;;15.27;10.27;;;;;;;;;;4361260;33;20202;-72
2021/05/07 01:48:58;;;;;;;18.33;11.30;;;;;;;;;;4359682;33;20159;-72
2021/05/07 01:51:23;;;;;;;17.27;10.70;;;;;;;;;;4349945;33;20151;-72
2021/05/07 01:53:49;;;;;;;17.20;10.97;;;;;;;;;;4345867;33;20246;-72
2021/05/07 01:56:14;;;;;;;17.97;10.77;;;;;;;;;;4345711;33;20591;-72
2021/05/07 01:58:39;;;;;;;20.50;11.50;;;;;;;;;;4332247;33;20175;-72
2021/05/07 02:01:04;;;;;;;19.47;12.10;;;;;;;;;;4338716;33;20210;-72
2021/05/07 02:03:29;;;;;;;18.13;12.27;;;;;;;;;;4360062;32;20131;-72
2021/05/07 02:05:55;;;;;;;18.17;11.57;;;;;;;;;;4364364;32;20282;-73
2021/05/07 02:08:20;;;;;;;15.73;10.73;;;;;;;;;;4365428;32;20165;-72
2021/05/07 02:10:45;;;;;;;17.93;11.47;;;;;;;;;;4362776;33;20165;-71
2021/05/07 02:13:11;;;;;;;19.03;11.80;;;;;;;;;;4363706;32;20231;-72
2021/05/07 02:15:36;;;;;;;20.13;12.23;;;;;;;;;;4364266;32;20135;-72
2021/05/07 02:18:02;;;;;;;20.43;11.33;;;;;;;;;;4362258;32;20474;-72
2021/05/07 02:20:28;;;;;;;19.13;11.97;;;;;;;;;;4335711;33;20510;-72
2021/05/07 02:22:54;;;;;;;19.83;12.77;;;;;;;;;;4348906;33;20186;-72
2021/05/07 02:25:23;;;;;;;9.53;5.80;;;;;;;;;;4349070;33;20459;-73
2021/05/07 02:27:48;;;;;;;6.77;4.00;;;;;;;;;;4349000;33;20147;-73
2021/05/07 02:30:15;;;;;;;9.30;3.67;;;;;;;;;;4347346;33;20173;-73
2021/05/07 02:32:41;;;;;;;5.23;3.00;;;;;;;;;;4348990;33;20173;-73
2021/05/07 02:35:06;;;;;;;3.67;2.50;;;;;;;;;;4347995;33;20160;-73
2021/05/07 02:37:32;;;;;;;4.20;2.60;;;;;;;;;;4348599;33;20151;-73
2021/05/07 02:39:57;;;;;;;3.90;2.40;;;;;;;;;;4348473;33;20560;-73
2021/05/07 02:42:22;;;;;;;4.43;2.73;;;;;;;;;;4347746;33;20147;-72
2021/05/07 02:44:48;;;;;;;3.50;2.47;;;;;;;;;;4348283;33;20136;-73
2021/05/07 02:47:13;;;;;;;3.90;2.47;;;;;;;;;;4348890;33;20162;-72
2021/05/07 02:49:38;;;;;;;3.97;2.60;;;;;;;;;;4347761;33;20138;-70
2021/05/07 02:52:04;;;;;;;3.90;3.00;;;;;;;;;;4347144;33;20136;-70
2021/05/07 02:54:32;;;;;;;3.73;2.57;;;;;;;;;;4347351;33;20217;-71
2021/05/07 02:56:58;;;;;;;5.53;2.93;;;;;;;;;;4348555;33;20182;-70
2021/05/07 02:59:23;;;;;;;3.90;3.00;;;;;;;;;;4333644;33;20608;-70
2021/05/07 03:01:49;;;;;;;4.27;3.30;;;;;;;;;;4348453;33;20195;-71
2021/05/07 03:04:14;;;;;;;6.47;3.50;;;;;;;;;;4348837;33;20139;-70
2021/05/07 03:06:39;;;;;;;5.13;3.00;;;;;;;;;;4348958;33;20552;-69
2021/05/07 03:09:04;;;;;;;7.20;3.10;;;;;;;;;;4348531;33;20168;-69
2021/05/07 03:11:30;;;;;;;6.30;3.40;;;;;;;;;;4350038;33;20190;-70
2021/05/07 03:13:55;;;;;;;6.10;3.40;;;;;;;;;;4349506;33;20596;-70
2021/05/07 03:16:23;;;;;;;6.27;3.10;;;;;;;;;;4347743;33;20564;-70
2021/05/07 03:18:51;;;;;;;5.20;3.13;;;;;;;;;;4349172;33;20151;-70
2021/05/07 03:21:17;;;;;;;6.00;3.53;;;;;;;;;;4333876;33;20577;-71
2021/05/07 03:23:42;;;;;;;5.97;3.00;;;;;;;;;;4333076;33;20233;-70
2021/05/07 03:26:07;;;;;;;4.93;3.47;;;;;;;;;;4354530;32;20457;-71
2021/05/07 03:28:33;;;;;;;5.47;3.33;;;;;;;;;;4348144;33;20456;-70
2021/05/07 03:30:58;;;;;;;4.93;3.63;;;;;;;;;;4362013;32;20140;-71
2021/05/07 03:33:23;;;;;;;4.53;3.10;;;;;;;;;;4346398;33;20490;-71
2021/05/07 03:35:48;;;;;;;5.20;3.30;;;;;;;;;;4332732;33;20230;-69
2021/05/07 03:38:13;;;;;;;5.47;3.53;;;;;;;;;;4333667;33;20533;-70
2021/05/07 03:40:38;;;;;;;8.07;4.10;;;;;;;;;;4334642;33;20318;-72
2021/05/07 03:43:04;;;;;;;5.00;3.73;;;;;;;;;;4353290;32;20147;-70
2021/05/07 03:45:29;;;;;;;5.93;3.97;;;;;;;;;;4362703;32;20143;-70
2021/05/07 03:47:54;;;;;;;6.97;4.27;;;;;;;;;;4361613;33;20307;-70
2021/05/07 03:50:19;;;;;;;7.70;4.43;;;;;;;;;;4347505;33;20276;-71
2021/05/07 03:52:45;;;;;;;7.40;4.50;;;;;;;;;;4347519;33;20500;-70
2021/05/07 03:55:11;;;;;;;10.27;8.30;;;;;;;;;;4363157;32;20499;-70
2021/05/07 03:57:36;;;;;;;8.87;5.20;;;;;;;;;;4362808;32;20193;-70
2021/05/07 04:00:02;;;;;;;9.03;5.67;;;;;;;;;;4344886;33;20529;-70
2021/05/07 04:02:28;;;;;;;7.63;4.70;;;;;;;;;;4346006;33;20603;-71
2021/05/07 04:04:54;;;;;;;8.43;4.90;;;;;;;;;;4347739;33;20209;-70
2021/05/07 04:07:20;;;;;;;6.53;4.63;;;;;;;;;;4347521;33;20185;-70
2021/05/07 04:09:51;;;;;;;9.63;5.07;;;;;;;;;;4333815;33;20266;-70
2021/05/07 04:14:41;;;;;;;8.90;4.87;;;;;;;;;;4346107;33;20565;-70
2021/05/07 04:17:07;;;;;;;7.70;4.83;;;;;;;;;;4345701;33;20683;-70
2021/05/07 04:19:32;;;;;;;9.07;5.27;;;;;;;;;;4333846;33;20216;-71
2021/05/07 04:21:57;;;;;;;7.47;4.97;;;;;;;;;;4347109;33;20162;-71
2021/05/07 04:24:22;;;;;;;7.40;4.97;;;;;;;;;;4332206;33;20216;-70
2021/05/07 04:26:47;;;;;;;7.07;3.90;;;;;;;;;;4332826;33;20535;-70
2021/05/07 04:29:13;;;;;;;7.17;4.63;;;;;;;;;;4331903;33;20201;-70
2021/05/07 04:31:38;;;;;;;8.30;4.87;;;;;;;;;;4346383;33;20487;-70
2021/05/07 04:34:06;;;;;;;7.27;4.67;;;;;;;;;;4331639;33;20216;-71
2021/05/07 04:36:31;;;;;;;7.03;4.87;;;;;;;;;;4332180;33;20690;-71
2021/05/07 04:38:56;;;;;;;8.17;4.67;;;;;;;;;;4346882;33;20143;-71
2021/05/07 04:41:21;;;;;;;8.90;5.77;;;;;;;;;;4346155;33;20140;-70
2021/05/07 04:43:47;;;;;;;8.43;5.50;;;;;;;;;;4332346;33;20168;-71
2021/05/07 04:46:12;;;;;;;10.80;6.13;;;;;;;;;;4346862;33;20140;-71
2021/05/07 04:48:37;;;;;;;11.33;6.80;;;;;;;;;;4346686;33;20139;-72
2021/05/07 04:51:02;;;;;;;11.97;6.97;;;;;;;;;;4346332;33;20170;-71
2021/05/07 04:53:28;;;;;;;12.70;7.83;;;;;;;;;;4347318;33;20147;-71
2021/05/07 04:55:53;;;;;;;11.10;6.90;;;;;;;;;;4344689;33;20132;-70
2021/05/07 04:58:18;;;;;;;11.05;7.25;;;;;;;;;;4345565;33;20329;-72
2021/05/07 05:00:43;;;;;;;11.00;6.93;;;;;;;;;;4346071;33;20174;-71
2021/05/07 05:03:08;;;;;;;11.67;6.90;;;;;;;;;;4347573;33;20167;-71
2021/05/07 05:05:34;;;;;;;9.63;5.53;;;;;;;;;;4357697;32;20614;-71
2021/05/07 05:07:59;;;;;;;11.57;6.30;;;;;;;;;;4345125;33;20136;-71
2021/05/07 05:10:24;;;;;;;11.03;7.47;;;;;;;;;;4333076;33;20234;-72
2021/05/07 05:12:49;;;;;;;10.07;7.00;;;;;;;;;;4345442;33;20162;-72
2021/05/07 05:15:15;;;;;;;9.90;6.80;;;;;;;;;;4354040;32;20204;-72
2021/05/07 05:17:40;;;;;;;10.53;7.40;;;;;;;;;;4361847;32;20482;-72
2021/05/07 05:20:06;;;;;;;11.50;7.33;;;;;;;;;;4361307;32;20170;-72
2021/05/07 05:22:31;;;;;;;15.10;8.13;;;;;;;;;;4360041;33;20221;-72
2021/05/07 05:24:57;;;;;;;12.33;7.13;;;;;;;;;;4346155;33;20170;-71
2021/05/07 05:27:22;;;;;;;11.20;7.43;;;;;;;;;;4359206;33;20198;-72
2021/05/07 05:29:48;;;;;;;13.17;8.07;;;;;;;;;;4361322;33;20586;-72
2021/05/07 05:32:13;;;;;;;7.80;5.60;;;;;;;;;;4359600;33;20528;-72
2021/05/07 05:34:38;;;;;;;9.93;6.87;;;;;;;;;;4360407;33;20155;-71
2021/05/07 05:37:03;;;;;;;8.47;6.13;;;;;;;;;;4359527;33;20147;-73
2021/05/07 05:39:29;;;;;;;9.93;6.70;;;;;;;;;;4347870;33;20205;-72
2021/05/07 05:41:54;;;;;;;8.87;6.33;;;;;;;;;;4350804;32;20580;-72
2021/05/07 05:44:19;;;;;;;10.57;6.90;;;;;;;;;;4364094;32;20159;-72
2021/05/07 05:46:44;;;;;;;9.10;6.50;;;;;;;;;;4363604;32;20158;-73
2021/05/07 05:49:09;;;;;;;11.07;6.83;;;;;;;;;;4350591;32;20182;-73
2021/05/07 05:51:35;;;;;;;11.60;6.97;;;;;;;;;;4364495;32;20217;-73
2021/05/07 05:54:00;;;;;;;8.80;6.20;;;;;;;;;;4348930;33;20244;-73
2021/05/07 05:56:25;;;;;;;9.57;6.13;;;;;;;;;;4363146;32;20253;-72
2021/05/07 05:58:50;;;;;;;7.83;5.60;;;;;;;;;;4363334;32;20150;-73
2021/05/07 06:01:16;;;;;;;6.77;5.17;;;;;;;;;;4348778;33;20171;-73
2021/05/07 06:03:41;;;;;;;8.87;5.10;;;;;;;;;;4350295;32;20171;-73
2021/05/07 06:06:06;;;;;;;6.67;4.83;;;;;;;;;;4363924;32;20161;-74
2021/05/07 06:08:31;;;;;;;6.97;5.20;;;;;;;;;;4362819;33;20201;-73
2021/05/07 06:10:56;;;;;;;6.87;4.70;;;;;;;;;;4364080;32;20162;-74
2021/05/07 06:13:21;;;;;;;7.85;4.80;;;;;;;;;;4361979;33;20532;-73
2021/05/07 06:15:47;;;;;;;6.67;4.70;;;;;;;;;;4359516;32;20155;-74
2021/05/07 06:18:12;;;;;;;6.73;4.63;;;;;;;;;;4334086;33;20167;-73
2021/05/07 06:20:37;;;;;;;8.67;5.27;;;;;;;;;;4349456;33;20140;-73
2021/05/07 06:23:02;;;;;;;6.87;5.20;;;;;;;;;;4349702;33;20612;-73
2021/05/07 06:25:27;;;;;;;6.53;4.97;;;;;;;;;;4349217;33;20132;-73
2021/05/07 06:27:53;;;;;;;7.53;4.20;;;;;;;;;;4348353;33;20473;-73
2021/05/07 06:30:18;;;;;;;6.23;4.60;;;;;;;;;;4348430;33;20162;-73
2021/05/07 06:32:43;;;;;;;8.63;5.63;;;;;;;;;;4349217;33;20170;-73
2021/05/07 06:35:09;;;;;;;6.97;5.40;;;;;;;;;;4337287;33;20175;-72
2021/05/07 06:37:34;;;;;;;8.03;5.63;;;;;;;;;;4362725;32;20143;-73
2021/05/07 06:40:00;;;;;;;6.87;4.83;;;;;;;;;;4363606;32;20165;-73
2021/05/07 06:42:25;;;;;;;8.03;5.40;;;;;;;;;;4362563;32;20576;-73
2021/05/07 06:44:50;;;;;;;10.63;6.40;;;;;;;;;;4361786;32;20159;-74
2021/05/07 06:47:16;;;;;;;9.63;5.40;;;;;;;;;;4361709;32;20260;-73
2021/05/07 06:49:41;;;;;;;8.37;5.80;;;;;;;;;;4345675;33;20172;-71
2021/05/07 06:52:06;;;;;;;8.47;6.27;;;;;;;;;;4350551;33;20170;-70
2021/05/07 06:54:31;;;;;;;12.67;7.23;;;;;;;;;;4347920;33;20175;-71
2021/05/07 06:56:58;;;;;;;12.73;6.60;;;;;;;;;;4349389;32;20244;-71
2021/05/07 06:59:23;;;;;;;10.93;7.83;;;;;;;;;;4361941;32;20210;-71
2021/05/07 07:01:48;;;;;;;10.97;6.97;;;;;;;;;;4361834;32;22046;-70
2021/05/07 07:04:13;;;;;;;10.70;6.93;;;;;;;;;;4359243;32;20202;-73
2021/05/07 07:06:39;;;;;;;10.47;7.00;;;;;;;;;;4349367;32;20188;-70
2021/05/07 07:09:04;;;;;;;10.73;6.60;;;;;;;;;;4361322;32;20146;-70
2021/05/07 07:11:29;;;;;;;11.30;6.73;;;;;;;;;;4360251;33;20135;-70
2021/05/07 07:13:54;;;;;;;13.13;7.97;;;;;;;;;;4362429;32;20297;-71
2021/05/07 07:16:19;;;;;;;12.63;8.10;;;;;;;;;;4377913;32;20577;-71
2021/05/07 07:18:45;;;;;;;11.83;8.37;;;;;;;;;;4359163;32;20186;-70
2021/05/07 07:21:10;;;;;;;11.40;7.30;;;;;;;;;;4354510;32;20258;-70
2021/05/07 07:23:36;;;;;;;13.00;8.43;;;;;;;;;;4361201;32;20233;-70
2021/05/07 07:26:01;;;;;;;11.57;8.70;;;;;;;;;;4348825;32;20502;-70
2021/05/07 07:28:26;;;;;;;16.33;9.67;;;;;;;;;;4361264;32;20137;-69
2021/05/07 07:30:51;;;;;;;15.70;9.40;;;;;;;;;;4360223;32;20250;-70
2021/05/07 07:33:17;;;;;;;15.65;9.30;;;;;;;;;;4346295;32;20230;-70
2021/05/07 07:35:42;;;;;;;12.52;8.65;;;;;;;;;;4360089;32;20174;-70
2021/05/07 07:38:07;;;;;;;13.57;8.67;;;;;;;;;;4355427;32;20506;-70
2021/05/07 07:40:32;;;;;;;10.93;8.03;;;;;;;;;;4353360;32;20557;-70
2021/05/07 07:42:57;;;;;;;12.30;8.43;;;;;;;;;;4349955;32;20526;-70
2021/05/07 07:45:22;;;;;;;12.57;7.60;;;;;;;;;;4343784;33;20171;-71
2021/05/07 07:47:48;;;;;;;9.30;6.77;;;;;;;;;;4347800;32;20557;-71
2021/05/07 07:50:13;;;;;;;10.50;6.33;;;;;;;;;;4347425;33;20178;-70
2021/05/07 07:52:39;;;;;;;9.90;5.67;;;;;;;;;;4345275;33;20195;-70
2021/05/07 07:55:05;;;;;;;8.60;5.37;;;;;;;;;;4358633;32;20604;-69
2021/05/07 07:57:30;;;;;;;7.37;5.00;;;;;;;;;;4346766;33;20167;-70
2021/05/07 07:59:55;;;;;;;8.83;4.77;;;;;;;;;;4353190;32;20329;-70
2021/05/07 08:02:21;;;;;;;6.33;4.50;;;;;;;;;;4345218;33;20342;-71
2021/05/07 08:04:47;;;;;;;6.37;4.53;;;;;;;;;;4347986;33;20192;-70
2021/05/07 08:07:12;;;;;;;4.90;3.63;;;;;;;;;;4343489;33;20635;-69
2021/05/07 08:09:38;;;;;;;7.87;3.80;;;;;;;;;;4345416;33;20215;-68
2021/05/07 08:12:03;;;;;;;6.70;3.77;;;;;;;;;;4345769;33;20278;-70
2021/05/07 08:14:28;;;;;;;4.60;3.30;;;;;;;;;;4342805;32;20170;-71
2021/05/07 08:16:53;;;;;;;7.90;3.60;;;;;;;;;;4351361;32;20175;-71
2021/05/07 08:19:18;;;;;;;8.83;3.67;;;;;;;;;;4343148;33;20633;-71
2021/05/07 08:21:44;;;;;;;4.70;3.40;;;;;;;;;;4361400;32;20162;-71
2021/05/07 08:24:10;;;;;;;5.60;3.70;;;;;;;;;;4361354;32;20439;-71
2021/05/07 08:26:35;;;;;;;5.37;3.50;;;;;;;;;;4360801;32;20170;-71
2021/05/07 08:29:00;;;;;;;5.90;3.70;;;;;;;;;;4361542;32;20139;-72
2021/05/07 08:31:25;;;;;;;5.80;3.87;;;;;;;;;;4359246;32;20563;-72
2021/05/07 08:33:51;;;;;;;6.30;3.70;;;;;;;;;;4360127;32;20246;-73
2021/05/07 08:36:16;;;;;;;5.67;3.23;;;;;;;;;;4343841;33;20229;-72
2021/05/07 08:38:41;;;;;;;4.87;3.95;;;;;;;;;;4332352;33;20739;-72
2021/05/07 08:41:06;;;;;;;4.87;3.25;;;;;;;;;;4332870;33;20256;-72
2021/05/07 08:43:32;;;;;;;6.18;3.47;;;;;;;;;;4346716;33;20251;-72
2021/05/07 08:45:57;;;;;;;5.30;3.50;;;;;;;;;;4345702;33;20135;-73
2021/05/07 08:48:24;;;;;;;5.53;3.22;;;;;;;;;;4333723;33;20159;-73
2021/05/07 08:50:51;;;;;;;6.05;3.80;;;;;;;;;;4356546;32;20208;-73
2021/05/07 08:53:16;;;;;;;8.40;3.87;;;;;;;;;;4360319;32;20203;-73
2021/05/07 08:55:42;;;;;;;8.53;3.83;;;;;;;;;;4361459;32;20254;-73
2021/05/07 08:58:07;;;;;;;6.47;4.10;;;;;;;;;;4359399;33;20143;-72
2021/05/07 09:00:32;;;;;;;5.03;3.58;;;;;;;;;;4345936;33;20266;-73
2021/05/07 09:03:04;;;;;;;8.30;4.45;;;;;;;;;;4354310;32;20489;-73
2021/05/07 09:05:30;;;;;;;9.25;5.05;;;;;;;;;;4332883;33;20175;-72
2021/05/07 09:07:55;;;;;;;6.35;3.53;;;;;;;;;;4330680;33;20253;-73
2021/05/07 09:10:30;;;;;;;6.53;3.50;;;;;;;;;;4346178;33;20239;-72
2021/05/07 09:12:55;;;;;;;4.75;3.30;;;;;;;;;;4344457;33;20229;-73
2021/05/07 09:15:20;;;;;;;6.27;3.70;;;;;;;;;;4344449;33;20209;-74
2021/05/07 09:17:45;;;;;;;6.40;4.00;;;;;;;;;;4345107;33;20207;-72
2021/05/07 09:20:11;;;;;;;8.05;4.00;;;;;;;;;;4345159;33;20264;-72
2021/05/07 09:22:37;;;;;;;4.62;3.95;;;;;;;;;;4330488;33;20315;-72
2021/05/07 09:25:07;;;;;;;9.05;4.12;;;;;;;;;;4344369;33;20517;-73
2021/05/07 09:27:32;;;;;;;3.85;3.03;;;;;;;;;;4344772;33;20151;-72
2021/05/07 09:29:57;;;;;;;5.47;2.90;;;;;;;;;;4344469;33;20207;-72
2021/05/07 09:32:30;;;;;;;7.45;2.87;;;;;;;;;;4333149;33;20163;-73
2021/05/07 09:35:05;;;;;;;4.95;3.05;;;;;;;;;;4330024;33;20239;-73
2021/05/07 09:37:30;;;;;;;6.72;3.05;;;;;;;;;;4332198;33;20190;-74
2021/05/07 09:39:55;;;;;;;5.37;3.45;;;;;;;;;;4328913;33;20199;-74
2021/05/07 09:42:22;;;;;;;6.95;3.95;;;;;;;;;;4335182;33;20185;-74
2021/05/07 09:44:47;;;;;;;4.82;3.30;;;;;;;;;;4347421;33;20213;-74
2021/05/07 09:47:16;;;;;;;4.97;3.28;;;;;;;;;;4337375;33;20701;-73
2021/05/07 09:49:42;;;;;;;4.93;3.10;;;;;;;;;;4338591;33;20222;-73
2021/05/07 09:52:07;;;;;;;3.83;2.58;;;;;;;;;;4346081;33;20561;-73
2021/05/07 09:54:33;;;;;;;6.43;3.08;;;;;;;;;;4343915;33;20167;-72
2021/05/07 09:56:58;;;;;;;5.65;3.03;;;;;;;;;;4345052;33;20647;-72
2021/05/07 09:59:23;;;;;;;4.12;2.92;;;;;;;;;;4343216;33;20600;-73
2021/05/07 10:01:49;;;;;;;4.80;3.25;;;;;;;;;;4345899;33;20588;-73
2021/05/07 10:04:15;;;;;;;5.32;3.22;;;;;;;;;;4345863;33;20504;-73
2021/05/07 10:06:40;;;;;;;6.20;3.83;;;;;;;;;;4346059;33;20552;-71
2021/05/07 10:09:09;;;;;;;3.65;2.80;;;;;;;;;;4343716;33;20201;-73
2021/05/07 10:11:36;;;;;;;7.68;2.65;;;;;;;;;;4343693;33;20148;-72
2021/05/07 10:14:05;;;;;;;2.62;2.08;;;;;;;;;;4343790;33;20233;-72
2021/05/07 10:16:30;;;;;;;5.57;2.70;;;;;;;;;;4344478;33;20135;-74
2021/05/07 10:19:06;;;;;;;5.03;2.92;;;;;;;;;;4344467;33;20151;-73
2021/05/07 10:21:36;;;;;;;3.83;2.70;;;;;;;;;;4342648;33;20183;-73
2021/05/07 10:24:02;;;;;;;5.22;2.85;;;;;;;;;;4344700;33;20194;-74
2021/05/07 10:26:35;;;;;;;5.53;3.00;;;;;;;;;;4347139;33;20143;-73
2021/05/07 10:29:00;;;;;;;3.58;2.67;;;;;;;;;;4347705;32;20165;-73
2021/05/07 10:31:25;;;;;;;4.28;2.90;;;;;;;;;;4350293;32;20692;-73
2021/05/07 10:34:01;;;;;;;4.50;2.92;;;;;;;;;;4349543;33;20186;-73
2021/05/07 10:36:38;;;;;;;3.85;2.37;;;;;;;;;;4358829;32;20166;-73
2021/05/07 10:39:14;;;;;;;7.22;2.90;;;;;;;;;;4360912;32;20170;-73
2021/05/07 10:41:39;;;;;;;4.65;2.60;;;;;;;;;;4361716;32;20131;-73
2021/05/07 10:44:04;;;;;;;3.28;2.50;;;;;;;;;;4346898;33;20166;-73
2021/05/07 10:46:30;;;;;;;5.35;3.00;;;;;;;;;;4335573;32;20386;-73
2021/05/07 10:48:56;;;;;;;4.93;2.90;;;;;;;;;;4349583;32;20221;-72
2021/05/07 10:51:23;;;;;;;4.93;2.87;;;;;;;;;;4352027;33;20140;-73
2021/05/07 10:53:49;;;;;;;4.35;3.00;;;;;;;;;;4348224;33;20186;-73
2021/05/07 10:56:21;;;;;;;5.82;3.35;;;;;;;;;;4347316;32;20185;-71
2021/05/07 10:58:47;;;;;;;5.70;2.95;;;;;;;;;;4358105;32;20182;-71
2021/05/07 11:01:15;;;;;;;5.03;2.92;;;;;;;;;;4349875;33;20552;-71
2021/05/07 11:03:41;;;;;;;5.55;3.75;;;;;;;;;;4347268;33;20604;-71
2021/05/07 11:06:06;;;;;;;7.07;3.72;;;;;;;;;;4347295;33;20240;-71
2021/05/07 11:08:32;;;;;;;4.95;3.97;;;;;;;;;;4361170;33;20135;-71
2021/05/07 11:10:57;;;;;;;5.70;3.92;;;;;;;;;;4352981;32;20144;-71
2021/05/07 11:13:23;;;;;;;5.93;3.87;;;;;;;;;;4346159;33;20190;-71
2021/05/07 11:15:55;;;;;;;6.03;4.65;;;;;;;;;;4362163;32;20245;-72
2021/05/07 11:18:25;;;;;;;5.30;4.12;;;;;;;;;;4360382;32;20146;-72
2021/05/07 11:20:50;;;;;;;6.50;3.65;;;;;;;;;;4345026;33;20163;-72
2021/05/07 11:23:16;;;;;;;5.22;4.12;;;;;;;;;;4361048;32;20202;-72
2021/05/07 11:25:42;;;;;;;5.82;3.87;;;;;;;;;;4360502;32;20254;-73
2021/05/07 11:28:12;;;;;;;6.40;4.78;;;;;;;;;;4356741;33;20167;-73
2021/05/07 11:30:46;;;;;;;4.55;3.45;;;;;;;;;;4347099;33;20132;-73
2021/05/07 11:33:11;;;;;;;4.93;3.10;;;;;;;;;;4347561;33;20128;-73
2021/05/07 11:35:36;;;;;;;3.28;2.60;;;;;;;;;;4345158;32;20182;-73
2021/05/07 11:38:01;;;;;;;7.30;3.17;;;;;;;;;;4361357;32;20334;-73
2021/05/07 11:40:33;;;;;;;5.47;3.50;;;;;;;;;;4360202;33;20688;-72
2021/05/07 11:43:06;;;;;;;5.57;3.70;;;;;;;;;;4351165;33;20593;-73
2021/05/07 11:45:31;;;;;;;6.47;3.97;;;;;;;;;;4344939;33;20187;-74
2021/05/07 11:47:56;;;;;;;6.70;3.85;;;;;;;;;;4331528;33;20156;-72
2021/05/07 11:50:25;;;;;;;5.62;3.90;;;;;;;;;;4345667;33;20167;-72
2021/05/07 11:52:50;;;;;;;5.95;4.15;;;;;;;;;;4345764;33;20186;-72
2021/05/07 11:55:18;;;;;;;7.93;4.30;;;;;;;;;;4347370;33;20186;-72
2021/05/07 11:57:44;;;;;;;11.40;4.68;;;;;;;;;;4361541;33;20143;-72
2021/05/07 12:00:10;;;;;;;7.07;3.90;;;;;;;;;;4361461;33;20151;-71
2021/05/07 12:02:37;;;;;;;6.78;4.25;;;;;;;;;;4360117;33;20448;-71
2021/05/07 12:05:03;;;;;;;6.25;4.00;;;;;;;;;;4359772;33;20603;-71
2021/05/07 12:07:29;;;;;;;8.88;4.70;;;;;;;;;;4350763;33;20139;-71
2021/05/07 12:09:55;;;;;;;6.60;4.40;;;;;;;;;;4345137;33;20548;-71
2021/05/07 12:12:20;;;;;;;7.28;4.47;;;;;;;;;;4359069;33;20242;-72
2021/05/07 12:14:48;;;;;;;7.50;4.32;;;;;;;;;;4345584;33;20178;-71
2021/05/07 12:17:14;;;;;;;8.82;3.95;;;;;;;;;;4342114;33;20196;-70
2021/05/07 12:19:40;;;;;;;5.43;3.83;;;;;;;;;;4357214;33;20151;-71
2021/05/07 12:22:05;;;;;;;7.05;3.90;;;;;;;;;;4358693;33;20158;-71
2021/05/07 12:24:30;;;;;;;5.65;3.83;;;;;;;;;;4359519;33;20154;-70
2021/05/07 12:26:55;;;;;;;6.22;3.47;;;;;;;;;;4360820;33;20629;-72
2021/05/07 12:29:21;;;;;;;5.82;3.60;;;;;;;;;;4334070;33;20181;-72
2021/05/07 12:31:46;;;;;;;3.90;3.12;;;;;;;;;;4344492;33;20136;-72
2021/05/07 12:34:16;;;;;;;3.42;2.95;;;;;;;;;;4339946;33;20158;-72
2021/05/07 12:36:41;;;;;;;4.75;3.00;;;;;;;;;;4332497;33;20283;-71
2021/05/07 12:39:08;;;;;;;3.80;2.97;;;;;;;;;;4345000;33;20143;-72
2021/05/07 12:41:33;;;;;;;6.65;3.30;;;;;;;;;;4355895;32;20171;-72
2021/05/07 12:43:59;;;;;;;4.72;3.35;;;;;;;;;;4359216;33;20196;-73
2021/05/07 12:46:24;;;;;;;4.60;3.50;;;;;;;;;;4358282;32;20205;-73
2021/05/07 12:48:52;;;;;;;4.47;3.45;;;;;;;;;;4361114;32;20131;-71
2021/05/07 12:51:20;;;;;;;6.10;3.87;;;;;;;;;;4361261;32;20169;-72
2021/05/07 12:53:46;;;;;;;7.37;4.05;;;;;;;;;;4359718;32;20173;-72
2021/05/07 12:56:12;;;;;;;7.03;3.97;;;;;;;;;;4345467;33;20587;-72
2021/05/07 12:58:37;;;;;;;6.07;3.60;;;;;;;;;;4359719;32;20143;-73
2021/05/07 13:01:02;;;;;;;5.80;3.73;;;;;;;;;;4359920;32;20571;-72
2021/05/07 13:03:28;;;;;;;5.87;3.80;;;;;;;;;;4360441;32;20258;-71
2021/05/07 13:05:53;;;;;;;6.10;4.40;;;;;;;;;;4360569;32;20158;-71
2021/05/07 13:08:18;;;;;;;6.00;4.35;;;;;;;;;;4346076;33;20484;-71
2021/05/07 13:10:46;;;;;;;5.55;4.15;;;;;;;;;;4359809;32;20239;-71
2021/05/07 13:13:11;;;;;;;6.32;4.43;;;;;;;;;;4358889;32;20139;-71
2021/05/07 13:15:36;;;;;;;7.75;4.68;;;;;;;;;;4358693;33;20217;-71
2021/05/07 13:18:04;;;;;;;5.10;3.55;;;;;;;;;;4350452;33;20644;-71
2021/05/07 13:20:29;;;;;;;7.82;3.80;;;;;;;;;;4345014;33;20299;-70
2021/05/07 13:22:54;;;;;;;6.00;3.90;;;;;;;;;;4346046;33;20190;-71
2021/05/07 13:25:20;;;;;;;4.62;3.70;;;;;;;;;;4347249;32;20259;-71
2021/05/07 13:27:46;;;;;;;6.35;4.00;;;;;;;;;;4358664;32;20231;-71
2021/05/07 13:30:12;;;;;;;5.75;4.10;;;;;;;;;;4344681;33;20197;-69
2021/05/07 13:32:37;;;;;;;7.22;4.55;;;;;;;;;;4331497;33;20492;-69
2021/05/07 13:35:03;;;;;;;7.18;4.97;;;;;;;;;;4332218;33;20159;-71
2021/05/07 13:37:28;;;;;;;5.45;4.60;;;;;;;;;;4345923;33;20159;-71
2021/05/07 13:39:53;;;;;;;7.95;5.30;;;;;;;;;;4345268;33;20163;-71
2021/05/07 13:42:19;;;;;;;7.50;4.75;;;;;;;;;;4345644;33;20154;-71
2021/05/07 13:44:44;;;;;;;9.50;5.07;;;;;;;;;;4346296;33;20575;-71
2021/05/07 13:47:09;;;;;;;7.80;5.05;;;;;;;;;;4344750;33;20136;-71
2021/05/07 13:49:34;;;;;;;5.15;4.50;;;;;;;;;;4344823;33;20533;-72
2021/05/07 13:52:00;;;;;;;7.12;4.25;;;;;;;;;;4346170;33;20162;-70
2021/05/07 13:54:25;;;;;;;5.62;4.18;;;;;;;;;;4344873;33;20790;-70
2021/05/07 13:56:51;;;;;;;6.85;4.18;;;;;;;;;;4345684;33;20531;-71
2021/05/07 13:59:18;;;;;;;4.50;3.47;;;;;;;;;;4343774;33;20237;-71
2021/05/07 14:01:43;;;;;;;4.50;3.30;;;;;;;;;;4346916;33;20158;-71
2021/05/07 14:04:09;;;;;;;5.68;3.25;;;;;;;;;;4347496;33;20135;-71
2021/05/07 14:06:35;;;;;;;4.12;3.03;;;;;;;;;;4347552;33;20478;-72
2021/05/07 14:09:00;;;;;;;4.82;2.60;;;;;;;;;;4347103;33;20252;-71
2021/05/07 14:11:25;;;;;;;3.70;2.85;;;;;;;;;;4348837;33;20993;-71
2021/05/07 14:13:51;;;;;;;4.78;2.70;;;;;;;;;;4333675;33;20163;-71
2021/05/07 14:16:17;;;;;;;6.15;3.08;;;;;;;;;;4335033;33;20711;-72
2021/05/07 14:18:42;;;;;;;5.12;3.53;;;;;;;;;;4348249;33;20283;-71
2021/05/07 14:21:07;;;;;;;4.37;2.45;;;;;;;;;;4348054;33;20127;-71
2021/05/07 14:23:33;;;;;;;5.22;2.15;;;;;;;;;;4346996;33;20151;-72
2021/05/07 14:25:58;;;;;;;2.75;2.10;;;;;;;;;;4348322;33;20239;-71
2021/05/07 14:28:23;;;;;;;4.00;2.20;;;;;;;;;;4346712;33;20158;-71
2021/05/07 14:30:48;;;;;;;2.53;1.80;;;;;;;;;;4346501;33;20228;-72
2021/05/07 14:33:15;;;;;;;4.40;2.30;;;;;;;;;;4346254;33;20262;-71